Time;durP1;ratioP1;P1;durP2;ratioP2;P2;SDS_P1;SDS_P2;PMS_P1;PMS_P2;Temp;Humidity;BMP_temperature;BMP_pressure;BME280_temperature;BME280_humidity;BME280_pressure;Samples;Min_cycle;Max_cycle;Signal;HPM_P1;HPM_P2
2023/03/27 00:01:04;;;;;;;3.67;0.90;;;;;;;15.33;37.18;101659.97;5072011;28;20020;-71
2023/03/27 00:03:30;;;;;;;2.63;1.23;;;;;;;15.20;38.00;101659.28;5069826;28;20039;-70
2023/03/27 00:06:01;;;;;;;4.77;0.93;;;;;;;16.60;36.19;101654.91;5069636;28;20159;-71
2023/03/27 00:08:27;;;;;;;2.60;0.93;;;;;;;16.41;35.34;101659.72;5071755;28;20024;-70
2023/03/27 00:10:53;;;;;;;6.07;1.00;;;;;;;14.52;37.96;101664.63;5069455;28;20377;-70
2023/03/27 00:13:19;;;;;;;6.40;1.50;;;;;;;15.83;36.88;101672.31;5071300;28;20028;-71
2023/03/27 00:15:45;;;;;;;10.73;1.07;;;;;;;15.14;37.87;101680.44;5072254;28;20025;-71
2023/03/27 00:18:12;;;;;;;5.77;1.30;;;;;;;14.48;39.26;101689.22;5068642;28;20052;-71
2023/03/27 00:20:38;;;;;;;10.43;1.57;;;;;;;14.58;40.43;101688.22;5069140;28;20106;-70
2023/03/27 00:23:05;;;;;;;5.77;1.37;;;;;;;14.90;38.65;101687.78;5069908;28;20027;-70
2023/03/27 00:25:32;;;;;;;9.80;1.43;;;;;;;15.17;38.12;101701.47;5070782;28;20480;-70
2023/03/27 00:27:58;;;;;;;10.17;1.67;;;;;;;14.30;40.22;101701.72;5071554;28;20488;-70
2023/03/27 00:30:28;;;;;;;7.87;1.13;;;;;;;15.13;38.81;101705.03;5070211;28;20028;-69
2023/03/27 00:32:54;;;;;;;7.30;1.57;;;;;;;14.98;38.16;101711.38;5070163;28;20025;-69
2023/03/27 00:35:21;;;;;;;13.37;1.40;;;;;;;14.62;38.91;101713.63;5070586;28;20364;-70
2023/03/27 00:37:47;;;;;;;5.40;1.10;;;;;;;14.80;38.46;101707.25;5068146;28;20024;-69
2023/03/27 00:40:16;;;;;;;6.37;1.10;;;;;;;14.22;39.98;101714.97;5069921;28;20028;-70
2023/03/27 00:42:49;;;;;;;10.30;1.53;;;;;;;14.58;39.99;101717.16;5069250;28;20433;-69
2023/03/27 00:45:23;;;;;;;5.05;1.58;;;;;;;14.50;39.94;101717.25;5069241;28;20024;-69
2023/03/27 00:47:55;;;;;;;6.13;1.10;;;;;;;15.04;38.33;101720.97;5069429;28;20488;-68
2023/03/27 00:50:29;;;;;;;6.13;1.27;;;;;;;14.23;39.04;101721.97;5069565;28;20036;-68
2023/03/27 00:52:59;;;;;;;8.77;1.43;;;;;;;14.73;38.00;101722.25;5069204;28;20503;-69
2023/03/27 00:55:27;;;;;;;7.43;1.43;;;;;;;14.97;38.21;101720.19;5071176;28;20156;-68
2023/03/27 00:57:59;;;;;;;6.20;1.30;;;;;;;14.93;38.12;101723.75;5069073;28;20054;-69
2023/03/27 01:00:25;;;;;;;7.80;1.50;;;;;;;14.68;38.52;101728.47;5070279;28;20493;-69
2023/03/27 01:02:50;;;;;;;6.83;1.43;;;;;;;15.34;37.73;101737.19;5067314;28;20093;-68
2023/03/27 01:05:18;;;;;;;8.53;1.20;;;;;;;15.28;37.72;101740.81;5068795;28;20040;-69
2023/03/27 01:07:47;;;;;;;7.27;1.50;;;;;;;15.59;37.38;101738.56;5069731;28;20119;-68
2023/03/27 01:10:15;;;;;;;6.93;1.73;;;;;;;14.92;38.53;101743.09;5070475;28;20029;-70
2023/03/27 01:12:57;;;;;;;9.17;1.83;;;;;;;14.72;38.53;101735.44;5067678;28;20319;-70
2023/03/27 01:15:41;;;;;;;9.23;1.63;;;;;;;14.90;38.81;101740.44;5069401;28;20419;-71
2023/03/27 01:18:19;;;;;;;7.80;1.90;;;;;;;15.18;38.16;101741.81;5069143;28;20534;-69
2023/03/27 01:21:04;;;;;;;3.90;1.57;;;;;;;15.29;38.20;101736.41;5068044;28;20032;-71
2023/03/27 01:24:04;;;;;;;7.13;1.30;;;;;;;15.19;38.92;101735.66;5069637;28;20448;-71
2023/03/27 01:26:50;;;;;;;8.63;1.67;;;;;;;15.22;38.52;101746.16;5068948;28;20039;-71
2023/03/27 01:29:34;;;;;;;6.40;1.70;;;;;;;15.21;38.13;101739.16;5068674;28;20032;-71
2023/03/27 01:32:24;;;;;;;4.53;1.50;;;;;;;14.99;37.91;101738.56;5069247;28;20090;-69
2023/03/27 01:35:27;;;;;;;12.60;1.63;;;;;;;15.22;38.47;101740.88;5067271;28;20032;-71
2023/03/27 01:38:15;;;;;;;4.82;2.60;;;;;;;15.19;37.81;101748.84;5069205;28;20025;-71
2023/03/27 01:40:50;;;;;;;8.43;1.70;;;;;;;14.73;38.22;101759.09;5067494;28;20508;-71
2023/03/27 01:43:22;;;;;;;10.50;1.93;;;;;;;14.36;38.80;101780.53;5066643;28;20400;-70
2023/03/27 01:46:01;;;;;;;9.63;1.85;;;;;;;13.55;40.59;101785.63;5055272;28;20024;-70
2023/03/27 01:48:56;;;;;;;9.27;2.83;;;;;;;13.85;40.05;101799.44;5067837;28;20049;-70
2023/03/27 01:51:27;;;;;;;6.67;1.50;;;;;;;13.35;41.94;101788.44;5062326;28;20317;-70
2023/03/27 01:54:01;;;;;;;8.50;2.20;;;;;;;14.88;38.41;101783.50;5067729;28;20021;-70
2023/03/27 01:56:53;;;;;;;17.97;1.87;;;;;;;14.32;38.50;101789.34;5067538;28;20034;-69
2023/03/27 01:59:22;;;;;;;7.93;1.40;;;;;;;14.44;39.62;101788.38;5065318;28;20029;-70
2023/03/27 02:01:54;;;;;;;7.90;1.67;;;;;;;14.30;38.86;101790.25;5063928;28;20392;-71
2023/03/27 02:04:26;;;;;;;9.20;2.50;;;;;;;14.63;39.40;101801.31;5067332;28;20025;-70
2023/03/27 02:06:57;;;;;;;10.33;1.30;;;;;;;14.00;40.03;101801.06;5067812;28;20110;-71
2023/03/27 02:09:34;;;;;;;11.37;1.80;;;;;;;14.96;38.29;101800.06;5056598;28;20512;-70
2023/03/27 02:12:23;;;;;;;9.43;1.93;;;;;;;14.36;39.61;101806.84;5067545;28;20039;-70
2023/03/27 02:15:16;;;;;;;6.10;1.87;;;;;;;14.79;39.11;101799.41;5053626;28;20051;-69
2023/03/27 02:17:48;;;;;;;5.20;1.40;;;;;;;15.15;38.21;101802.44;5048968;28;20024;-70
2023/03/27 02:20:15;;;;;;;9.98;1.90;;;;;;;14.84;38.90;101819.50;5048875;28;20071;-71
2023/03/27 02:22:49;;;;;;;9.27;1.70;;;;;;;15.48;36.90;101810.75;5067502;28;20029;-71
2023/03/27 02:25:40;;;;;;;9.00;1.80;;;;;;;14.39;39.23;101822.59;5067922;28;20039;-70
2023/03/27 02:28:45;;;;;;;9.57;1.73;;;;;;;14.79;38.55;101829.22;5049135;28;20071;-69
2023/03/27 02:31:28;;;;;;;8.67;1.70;;;;;;;15.04;38.34;101826.28;5028212;28;20511;-70
2023/03/27 02:34:30;;;;;;;11.33;1.70;;;;;;;13.70;40.45;101828.47;5029549;28;20037;-70
2023/03/27 02:37:15;;;;;;;9.07;1.63;;;;;;;14.74;38.72;101833.66;5059754;28;20069;-70
2023/03/27 02:39:56;;;;;;;10.50;1.80;;;;;;;13.58;41.21;101827.63;5070052;28;20032;-69
2023/03/27 02:42:36;;;;;;;6.67;1.90;;;;;;;14.06;39.88;101829.91;5066897;28;20033;-69
2023/03/27 02:45:12;;;;;;;9.27;1.47;;;;;;;14.36;39.46;101833.16;5065541;28;20032;-69
2023/03/27 02:47:54;;;;;;;5.33;1.60;;;;;;;15.13;37.91;101835.84;5068832;28;20056;-69
2023/03/27 02:50:35;;;;;;;3.00;0.97;;;;;;;14.64;38.94;101840.78;5067280;28;20025;-70
2023/03/27 02:53:04;;;;;;;7.57;1.67;;;;;;;13.57;40.84;101846.94;5066516;28;20044;-70
2023/03/27 02:55:44;;;;;;;7.80;1.20;;;;;;;13.19;41.13;101849.75;5068910;28;20033;-68
2023/03/27 02:58:19;;;;;;;7.87;1.10;;;;;;;14.32;38.65;101847.22;5051283;28;20037;-69
2023/03/27 03:00:49;;;;;;;4.23;0.80;;;;;;;14.05;39.98;101851.84;5047682;28;20033;-69
2023/03/27 03:03:19;;;;;;;4.53;1.00;;;;;;;12.61;41.26;101856.94;5056866;28;20037;-70
2023/03/27 03:05:45;;;;;;;2.90;0.93;;;;;;;13.38;40.15;101856.66;5066576;28;20056;-68
2023/03/27 03:08:13;;;;;;;4.40;1.10;;;;;;;12.74;40.67;101863.00;5067650;28;20170;-68
2023/03/27 03:10:43;;;;;;;4.07;0.87;;;;;;;14.25;38.67;101866.56;5066619;28;20033;-69
2023/03/27 03:13:09;;;;;;;3.70;0.90;;;;;;;13.75;38.32;101866.06;5067519;28;20025;-69
2023/03/27 03:15:34;;;;;;;2.63;0.97;;;;;;;13.63;38.80;101872.28;5067427;28;20401;-68
2023/03/27 03:17:59;;;;;;;1.47;0.60;;;;;;;13.82;39.67;101877.41;5066788;28;20039;-70
2023/03/27 03:20:28;;;;;;;1.73;0.80;;;;;;;13.95;39.07;101884.31;5066366;28;20498;-69
2023/03/27 03:22:55;;;;;;;3.77;0.97;;;;;;;14.24;38.52;101893.75;5067217;28;20116;-69
2023/03/27 03:25:20;;;;;;;4.63;0.77;;;;;;;11.19;44.48;101911.72;5067499;28;20025;-68
2023/03/27 03:27:45;;;;;;;4.23;1.77;;;;;;;11.67;44.91;101912.78;5066546;28;20038;-68
2023/03/27 03:30:11;;;;;;;12.10;2.20;;;;;;;10.76;46.28;101917.59;5064947;28;20428;-69
2023/03/27 03:32:38;;;;;;;5.13;0.60;;;;;;;11.27;43.76;101920.50;5066561;28;20171;-69
2023/03/27 03:35:04;;;;;;;3.93;1.00;;;;;;;12.35;42.80;101920.78;5065634;28;20024;-69
2023/03/27 03:37:37;;;;;;;2.67;0.77;;;;;;;11.91;44.50;101936.41;5067587;28;20017;-70
2023/03/27 03:40:15;;;;;;;4.73;0.80;;;;;;;12.62;42.48;101944.34;5065703;28;20039;-69
2023/03/27 03:42:49;;;;;;;2.67;0.70;;;;;;;12.54;42.94;101949.59;5068850;28;20036;-69
2023/03/27 03:45:15;;;;;;;4.40;1.03;;;;;;;11.55;46.24;101933.69;5066929;28;20040;-69
2023/03/27 03:47:42;;;;;;;6.53;0.80;;;;;;;12.84;43.48;101921.59;5066949;28;20033;-69
2023/03/27 03:50:08;;;;;;;12.63;2.17;;;;;;;11.65;44.92;101932.84;5064881;28;20029;-69
2023/03/27 03:52:34;;;;;;;10.03;1.10;;;;;;;12.65;43.61;101936.47;5066176;28;20025;-69
2023/03/27 03:54:59;;;;;;;13.63;1.90;;;;;;;13.17;43.33;101935.50;5066369;28;20050;-70
2023/03/27 03:57:25;;;;;;;10.77;1.50;;;;;;;13.55;43.22;101932.75;5066817;28;20033;-69
2023/03/27 03:59:50;;;;;;;13.53;2.17;;;;;;;14.03;41.38;101939.50;5067139;28;20086;-70
2023/03/27 04:02:26;;;;;;;7.03;1.57;;;;;;;13.65;42.65;101949.31;5065808;28;20032;-69
2023/03/27 04:05:01;;;;;;;8.37;1.53;;;;;;;14.03;41.55;101928.97;5066669;28;20039;-70
2023/03/27 04:07:30;;;;;;;10.40;2.87;;;;;;;14.22;41.03;101929.72;5067073;28;20472;-69
2023/03/27 04:09:57;;;;;;;10.33;2.40;;;;;;;13.93;42.62;101941.31;5067961;28;20446;-70
2023/03/27 04:12:23;;;;;;;17.00;4.00;;;;;;;13.32;42.13;101945.94;5061972;28;20033;-69
2023/03/27 04:14:48;;;;;;;4.13;1.60;;;;;;;13.50;41.51;101938.91;5052200;28;20039;-70
2023/03/27 04:17:13;;;;;;;7.53;1.90;;;;;;;14.14;41.06;101947.31;5067464;28;20468;-70
2023/03/27 04:19:40;;;;;;;8.03;1.63;;;;;;;14.22;41.80;101940.22;5067627;28;20400;-70
2023/03/27 04:22:06;;;;;;;7.90;1.60;;;;;;;13.70;41.38;101952.81;5066139;28;20028;-71
2023/03/27 04:24:31;;;;;;;7.63;1.27;;;;;;;13.65;41.49;101951.94;5066902;28;20078;-68
2023/03/27 04:27:00;;;;;;;4.07;1.00;;;;;;;14.00;41.63;101956.16;5066694;28;20498;-70
2023/03/27 04:29:29;;;;;;;9.87;1.20;;;;;;;13.53;42.56;101968.66;5062910;28;20025;-69
2023/03/27 04:31:57;;;;;;;7.20;1.10;;;;;;;13.34;42.61;101978.31;5064696;28;20055;-70
2023/03/27 04:34:24;;;;;;;3.17;1.67;;;;;;;13.69;42.58;101974.69;5064680;28;20060;-69
2023/03/27 04:36:50;;;;;;;7.93;1.30;;;;;;;13.94;41.61;101977.19;5067002;28;20045;-70
2023/03/27 04:39:19;;;;;;;13.50;1.93;;;;;;;13.85;41.27;101985.16;5067409;28;20036;-69
2023/03/27 04:41:48;;;;;;;5.20;1.37;;;;;;;13.88;42.37;101987.75;5068905;28;20031;-69
2023/03/27 04:44:17;;;;;;;10.40;3.80;;;;;;;13.95;41.45;101981.59;5068198;28;20098;-71
2023/03/27 04:46:47;;;;;;;9.33;1.60;;;;;;;13.82;40.93;102003.53;5071298;28;20412;-70
2023/03/27 04:49:14;;;;;;;7.97;1.90;;;;;;;12.89;43.78;102024.78;5069691;28;20130;-70
2023/03/27 04:51:40;;;;;;;7.43;1.70;;;;;;;10.20;50.26;102039.06;5065528;28;20444;-70
2023/03/27 04:54:06;;;;;;;8.67;1.57;;;;;;;8.80;53.59;102056.28;5063799;28;20070;-69
2023/03/27 04:56:33;;;;;;;6.70;2.70;;;;;;;9.11;51.92;102047.25;5071253;28;20149;-69
2023/03/27 04:58:59;;;;;;;6.00;1.20;;;;;;;8.93;51.44;102032.19;5070420;28;20140;-70
2023/03/27 05:01:25;;;;;;;7.37;1.27;;;;;;;9.28;51.36;102044.88;5070817;28;20563;-69
2023/03/27 05:03:52;;;;;;;8.90;1.67;;;;;;;11.28;47.77;102042.66;5069607;28;20119;-69
2023/03/27 05:06:18;;;;;;;7.40;1.30;;;;;;;9.53;49.44;102040.00;5067949;28;20040;-69
2023/03/27 05:08:43;;;;;;;2.77;1.10;;;;;;;9.47;49.36;102043.41;5070696;28;20473;-69
2023/03/27 05:11:09;;;;;;;6.20;1.10;;;;;;;11.12;47.50;102032.94;5070503;28;20029;-70
2023/03/27 05:13:35;;;;;;;13.97;2.13;;;;;;;11.21;46.39;102027.78;5068290;28;20036;-69
2023/03/27 05:16:01;;;;;;;1.90;1.00;;;;;;;10.18;48.37;102046.03;5069644;28;20192;-69
2023/03/27 05:18:29;;;;;;;2.87;1.10;;;;;;;11.31;46.14;102028.72;5068135;28;20032;-69
2023/03/27 05:20:55;;;;;;;3.47;0.77;;;;;;;11.85;44.12;102028.97;5067569;28;20085;-69
2023/03/27 05:23:21;;;;;;;9.17;2.33;;;;;;;11.85;44.83;102032.44;5068465;28;20127;-69
2023/03/27 05:25:46;;;;;;;10.97;1.37;;;;;;;11.01;45.47;102035.47;5068693;28;20456;-69
2023/03/27 05:28:11;;;;;;;5.97;1.47;;;;;;;11.53;43.53;102040.19;5070016;28;20032;-69
2023/03/27 05:30:37;;;;;;;8.13;1.57;;;;;;;11.65;44.41;102040.25;5068535;28;20521;-69
2023/03/27 05:33:03;;;;;;;7.60;1.40;;;;;;;10.61;45.85;102041.25;5068435;28;20456;-70
2023/03/27 05:35:28;;;;;;;5.67;1.53;;;;;;;11.57;43.60;102041.94;5069055;28;20028;-69
2023/03/27 05:37:55;;;;;;;8.60;2.77;;;;;;;11.73;43.47;102047.25;5065223;28;20040;-70
2023/03/27 05:40:26;;;;;;;3.53;1.37;;;;;;;12.11;42.23;102046.56;5069746;28;20155;-70
2023/03/27 05:42:53;;;;;;;6.93;1.67;;;;;;;11.95;42.68;102053.47;5066603;28;20399;-69
2023/03/27 05:45:19;;;;;;;20.97;7.43;;;;;;;12.82;42.55;102054.53;5068800;28;20039;-69
2023/03/27 05:47:53;;;;;;;45.47;19.03;;;;;;;12.07;41.74;102068.38;5066911;28;20086;-69
2023/03/27 05:50:21;;;;;;;131.90;62.03;;;;;;;12.35;42.01;102075.47;5068651;28;20030;-70
2023/03/27 05:52:54;;;;;;;69.57;29.97;;;;;;;12.19;42.90;102063.19;5066433;28;20016;-69
2023/03/27 05:55:20;;;;;;;205.63;90.60;;;;;;;12.13;41.92;102060.53;5066503;28;20476;-69
2023/03/27 05:57:45;;;;;;;162.80;66.90;;;;;;;12.10;42.81;102073.63;5066007;28;20127;-69
2023/03/27 06:00:15;;;;;;;59.50;38.20;;;;;;;12.76;40.79;102070.25;5066664;28;20446;-70
2023/03/27 06:02:43;;;;;;;11.37;8.43;;;;;;;12.82;41.11;102075.53;5066860;28;20438;-69
2023/03/27 06:05:14;;;;;;;20.23;10.73;;;;;;;12.51;41.07;102078.09;5066148;28;20028;-69
2023/03/27 06:07:41;;;;;;;9.10;3.27;;;;;;;13.01;40.39;102068.50;5066137;28;20070;-69
2023/03/27 06:10:08;;;;;;;12.53;3.60;;;;;;;12.76;40.97;102073.75;5065506;28;20028;-69
2023/03/27 06:12:35;;;;;;;8.47;1.80;;;;;;;12.09;41.18;102077.09;5066016;28;20116;-69
2023/03/27 06:15:04;;;;;;;9.87;1.90;;;;;;;12.88;40.13;102078.13;5065461;28;20496;-69
2023/03/27 06:17:30;;;;;;;10.30;2.80;;;;;;;13.44;40.85;102079.00;5068237;28;20387;-69
2023/03/27 06:19:56;;;;;;;5.67;2.10;;;;;;;13.92;39.14;102084.13;5068910;28;20107;-69
2023/03/27 06:22:22;;;;;;;7.93;1.90;;;;;;;13.18;39.86;102086.88;5068361;28;20028;-70
2023/03/27 06:24:47;;;;;;;13.87;2.43;;;;;;;13.77;39.38;102092.06;5067347;28;20538;-71
2023/03/27 06:27:12;;;;;;;12.20;2.40;;;;;;;13.35;39.72;102095.66;5068036;28;20499;-70
2023/03/27 06:29:38;;;;;;;9.50;1.80;;;;;;;13.44;40.89;102101.78;5068407;28;20107;-70
2023/03/27 06:32:03;;;;;;;6.07;1.67;;;;;;;13.44;39.73;102105.25;5067917;28;20496;-70
2023/03/27 06:34:28;;;;;;;7.83;1.63;;;;;;;13.67;38.78;102110.47;5069468;28;20432;-70
2023/03/27 06:36:54;;;;;;;6.37;1.80;;;;;;;13.62;39.44;102112.22;5067551;28;20464;-69
2023/03/27 06:39:20;;;;;;;11.27;1.73;;;;;;;13.48;39.74;102114.03;5067143;28;20048;-70
2023/03/27 06:41:46;;;;;;;8.40;1.87;;;;;;;12.58;41.98;102116.56;5068639;28;20111;-69
2023/03/27 06:44:11;;;;;;;6.27;1.90;;;;;;;13.30;41.13;102110.50;5066735;28;20347;-69
2023/03/27 06:46:37;;;;;;;3.90;2.00;;;;;;;14.03;39.16;102113.84;5065733;28;20028;-69
2023/03/27 06:49:03;;;;;;;6.67;1.70;;;;;;;13.86;39.15;102115.66;5064283;28;20456;-70
2023/03/27 06:51:28;;;;;;;10.10;1.83;;;;;;;13.33;40.33;102114.88;5062728;28;20369;-69
2023/03/27 06:53:53;;;;;;;5.93;1.53;;;;;;;14.00;39.86;102119.13;5062498;28;20035;-69
2023/03/27 06:56:20;;;;;;;13.33;2.03;;;;;;;13.77;40.19;102120.97;5059621;28;20055;-69
2023/03/27 06:58:45;;;;;;;13.03;2.10;;;;;;;13.25;41.12;102117.50;5066217;28;20060;-71
2023/03/27 07:01:11;;;;;;;8.47;2.27;;;;;;;14.35;39.65;102118.06;5060850;28;20036;-68
2023/03/27 07:03:37;;;;;;;9.70;2.07;;;;;;;14.56;39.30;102129.34;5066751;28;20510;-70
2023/03/27 07:06:06;;;;;;;11.03;3.03;;;;;;;14.80;39.67;102119.59;5064765;28;20113;-69
2023/03/27 07:08:31;;;;;;;15.10;1.93;;;;;;;13.85;39.94;102134.97;5067139;28;20029;-69
2023/03/27 07:10:56;;;;;;;13.23;2.10;;;;;;;14.63;39.05;102140.75;5068740;28;20108;-70
2023/03/27 07:13:22;;;;;;;7.27;1.60;;;;;;;13.23;40.13;102148.16;5066280;28;20099;-70
2023/03/27 07:15:47;;;;;;;9.83;1.33;;;;;;;12.85;41.90;102141.97;5068022;28;20404;-70
2023/03/27 07:18:14;;;;;;;6.27;0.70;;;;;;;12.95;40.80;102155.13;5065309;28;20040;-70
2023/03/27 07:20:39;;;;;;;11.70;1.00;;;;;;;13.31;41.22;102164.78;5050288;28;20486;-70
2023/03/27 07:23:04;;;;;;;3.80;0.87;;;;;;;12.40;44.09;102182.97;5046853;28;20036;-70
2023/03/27 07:25:36;;;;;;;16.37;1.23;;;;;;;12.07;43.56;102194.19;5046927;28;20071;-70
2023/03/27 07:28:07;;;;;;;1.67;0.50;;;;;;;10.94;46.24;102191.53;5047465;28;20488;-70
2023/03/27 07:30:32;;;;;;;4.30;0.60;;;;;;;12.04;44.17;102180.19;5068654;28;20377;-70
2023/03/27 07:32:58;;;;;;;4.93;0.60;;;;;;;11.81;44.26;102198.34;5066471;28;20033;-69
2023/03/27 07:35:24;;;;;;;6.07;1.10;;;;;;;8.95;48.44;102233.88;5068618;28;20112;-70
2023/03/27 07:37:52;;;;;;;0.80;0.40;;;;;;;10.53;48.78;102198.03;5055690;28;20397;-70
2023/03/27 07:40:21;;;;;;;2.10;0.67;;;;;;;11.06;46.67;102195.13;5065797;28;20115;-70
2023/03/27 07:42:48;;;;;;;6.37;1.10;;;;;;;12.53;43.95;102194.41;5065070;28;20024;-70
2023/03/27 07:45:15;;;;;;;5.30;1.30;;;;;;;12.80;43.44;102192.72;5059752;28;20392;-69
2023/03/27 07:47:42;;;;;;;3.07;0.60;;;;;;;13.72;41.27;102186.66;5047064;28;20051;-69
2023/03/27 07:50:12;;;;;;;5.17;1.00;;;;;;;13.03;41.93;102196.25;5065558;28;20493;-69
2023/03/27 07:52:43;;;;;;;3.80;0.83;;;;;;;13.56;40.67;102197.19;5067153;28;20472;-70
2023/03/27 07:55:11;;;;;;;6.63;0.70;;;;;;;14.26;39.92;102202.31;5064288;28;20822;-70
2023/03/27 07:57:43;;;;;;;5.13;0.97;;;;;;;14.87;38.84;102197.66;5068643;28;20017;-70
2023/03/27 08:00:13;;;;;;;12.98;2.25;;;;;;;13.05;41.56;102215.50;5065073;28;20032;-70
2023/03/27 08:02:39;;;;;;;4.90;1.00;;;;;;;13.07;41.97;102208.50;5064143;28;20458;-70
2023/03/27 08:05:07;;;;;;;6.50;0.80;;;;;;;13.53;41.10;102206.81;5047256;28;20111;-70
2023/03/27 08:07:34;;;;;;;8.53;1.17;;;;;;;14.21;39.94;102202.28;5052635;28;20499;-71
2023/03/27 08:09:59;;;;;;;6.67;0.90;;;;;;;13.84;39.80;102212.03;5065780;28;20044;-69
2023/03/27 08:12:25;;;;;;;3.30;0.30;;;;;;;14.88;36.49;102215.19;5067386;28;20036;-70
2023/03/27 08:14:52;;;;;;;4.43;0.60;;;;;;;15.81;35.87;102209.22;5065698;28;20567;-70
2023/03/27 08:17:18;;;;;;;3.57;0.50;;;;;;;15.91;34.27;102216.16;5071242;28;20024;-70
2023/03/27 08:19:45;;;;;;;6.07;0.90;;;;;;;17.10;32.84;102212.88;5071231;28;20035;-70
2023/03/27 08:22:11;;;;;;;6.77;1.20;;;;;;;18.18;31.22;102214.56;5069768;28;20546;-69
2023/03/27 08:24:36;;;;;;;4.07;0.60;;;;;;;17.51;31.88;102212.22;5069326;28;20036;-70
2023/03/27 08:27:02;;;;;;;6.23;1.07;;;;;;;17.97;32.24;102216.72;5068888;28;20020;-69
2023/03/27 08:29:28;;;;;;;6.33;0.83;;;;;;;18.17;30.39;102223.41;5070840;28;20036;-70
2023/03/27 08:31:53;;;;;;;3.10;1.03;;;;;;;15.06;35.43;102246.66;5071596;28;20434;-69
2023/03/27 08:34:19;;;;;;;4.27;0.67;;;;;;;13.71;38.67;102254.09;5071002;28;20082;-70
2023/03/27 08:36:44;;;;;;;4.73;0.67;;;;;;;13.51;38.63;102267.22;5079908;28;20063;-71
2023/03/27 08:39:10;;;;;;;3.33;0.60;;;;;;;11.54;43.43;102256.66;5061501;28;20028;-70
2023/03/27 08:41:37;;;;;;;6.77;1.03;;;;;;;11.97;44.36;102262.25;5064302;28;20060;-70
2023/03/27 08:44:08;;;;;;;6.37;0.73;;;;;;;12.59;42.61;102261.72;5069396;28;20032;-70
2023/03/27 08:46:44;;;;;;;7.40;0.90;;;;;;;12.91;42.78;102261.81;5066843;28;20033;-70
2023/03/27 08:49:10;;;;;;;4.73;0.67;;;;;;;12.99;41.69;102257.47;5065817;28;20049;-70
2023/03/27 08:51:47;;;;;;;9.67;1.50;;;;;;;14.42;40.46;102263.59;5071033;28;20435;-70
2023/03/27 08:54:18;;;;;;;8.07;1.07;;;;;;;15.77;37.76;102259.28;5068876;28;20466;-71
2023/03/27 08:56:44;;;;;;;3.60;0.70;;;;;;;17.08;35.71;102262.22;5067696;28;20461;-70
2023/03/27 08:59:16;;;;;;;8.43;0.93;;;;;;;17.81;34.64;102253.13;5057234;28;20036;-70
2023/03/27 09:02:08;;;;;;;6.35;2.15;;;;;;;18.87;33.62;102257.22;5069649;28;20506;-69
2023/03/27 09:04:52;;;;;;;8.23;0.90;;;;;;;19.37;32.80;102259.63;5067164;28;20112;-70
2023/03/27 09:07:42;;;;;;;5.27;0.80;;;;;;;19.12;32.25;102258.47;5065984;28;20036;-70
2023/03/27 09:10:16;;;;;;;12.77;1.70;;;;;;;18.53;32.94;102279.13;5066153;28;20119;-71
2023/03/27 09:13:16;;;;;;;11.50;0.87;;;;;;;16.69;33.27;102285.63;5060326;28;20029;-70
2023/03/27 09:15:59;;;;;;;9.93;0.90;;;;;;;14.58;37.09;102302.13;5056598;28;20500;-69
2023/03/27 09:18:46;;;;;;;6.78;1.13;;;;;;;14.87;38.36;102326.63;5059988;28;20507;-69
2023/03/27 09:21:18;;;;;;;3.13;0.70;;;;;;;12.72;43.32;102332.63;5061415;28;20507;-70
2023/03/27 09:23:45;;;;;;;3.47;0.73;;;;;;;12.30;44.52;102335.88;5077650;28;20498;-69
2023/03/27 09:26:37;;;;;;;3.23;0.60;;;;;;;11.70;47.35;102365.94;5068454;28;20086;-70
2023/03/27 09:29:16;;;;;;;2.05;0.40;;;;;;;10.52;51.81;102365.34;5071117;28;20024;-70
2023/03/27 09:31:50;;;;;;;6.30;0.60;;;;;;;11.25;48.87;102375.06;5066815;28;20140;-70
2023/03/27 09:34:27;;;;;;;2.53;0.70;;;;;;;13.68;45.20;102358.31;5063925;28;20025;-69
2023/03/27 09:36:54;;;;;;;2.40;0.80;;;;;;;11.70;47.97;102368.56;5066671;28;20029;-70
2023/03/27 09:39:27;;;;;;;1.47;0.73;;;;;;;12.68;45.78;102354.47;5069028;28;20146;-69
2023/03/27 09:41:57;;;;;;;5.03;0.98;;;;;;;12.07;44.53;102352.28;5067214;28;20415;-69
2023/03/27 09:44:27;;;;;;;5.53;0.70;;;;;;;13.26;42.35;102345.06;5060172;28;20029;-70
2023/03/27 09:46:59;;;;;;;2.60;0.80;;;;;;;14.32;39.45;102331.13;5068617;28;20030;-68
2023/03/27 09:49:26;;;;;;;5.47;0.55;;;;;;;13.45;39.27;102339.88;5069481;28;20044;-69
2023/03/27 09:51:54;;;;;;;3.23;0.77;;;;;;;14.02;38.56;102338.19;5069024;28;20044;-69
2023/03/27 09:54:22;;;;;;;5.83;0.60;;;;;;;14.85;37.88;102336.28;5061119;28;20020;-69
2023/03/27 09:56:51;;;;;;;8.00;0.77;;;;;;;13.26;38.78;102347.69;5069496;28;20103;-70
2023/03/27 09:59:27;;;;;;;1.90;0.50;;;;;;;14.11;38.95;102344.31;5066292;28;20020;-68
2023/03/27 10:01:58;;;;;;;6.50;0.90;;;;;;;15.91;36.85;102338.31;5063530;28;20071;-70
2023/03/27 10:04:26;;;;;;;2.57;0.60;;;;;;;14.27;37.76;102342.56;5061037;28;20017;-68
2023/03/27 10:07:05;;;;;;;4.33;0.87;;;;;;;15.36;37.93;102338.66;5066745;28;20118;-67
2023/03/27 10:09:36;;;;;;;8.10;1.00;;;;;;;17.55;34.32;102343.47;5067465;28;20032;-67
2023/03/27 10:12:19;;;;;;;5.07;0.90;;;;;;;17.06;35.82;102343.28;5067086;28;20040;-69
2023/03/27 10:14:48;;;;;;;7.53;1.52;;;;;;;18.41;34.23;102334.06;5069407;28;20028;-68
2023/03/27 10:17:26;;;;;;;4.77;1.00;;;;;;;18.25;34.43;102338.78;5063265;28;20511;-67
2023/03/27 10:19:58;;;;;;;5.40;1.03;;;;;;;17.27;34.07;102344.72;5067540;28;20048;-67
2023/03/27 10:22:29;;;;;;;5.32;0.80;;;;;;;17.87;33.32;102347.34;5061941;28;20025;-68
2023/03/27 10:24:58;;;;;;;9.43;1.47;;;;;;;18.23;32.34;102334.41;5061566;28;20040;-67
2023/03/27 10:27:34;;;;;;;6.07;0.90;;;;;;;18.04;32.42;102324.16;5066195;28;20291;-68
2023/03/27 10:30:00;;;;;;;8.27;1.17;;;;;;;20.25;30.14;102323.72;5067213;28;20503;-68
2023/03/27 10:32:43;;;;;;;4.10;0.70;;;;;;;17.54;32.39;102333.78;5060379;28;20094;-68
2023/03/27 10:35:25;;;;;;;5.10;0.90;;;;;;;17.89;29.51;102345.56;5060796;28;20071;-69
2023/03/27 10:37:51;;;;;;;8.10;0.80;;;;;;;17.18;31.43;102341.34;5065959;28;20266;-68
2023/03/27 10:40:20;;;;;;;3.57;0.77;;;;;;;18.82;29.77;102340.31;5064535;28;20036;-69
2023/03/27 10:42:47;;;;;;;3.90;1.40;;;;;;;16.07;35.25;102348.72;5067948;28;20024;-68
2023/03/27 10:45:18;;;;;;;5.57;1.00;;;;;;;14.85;36.01;102367.88;5071313;28;20024;-69
2023/03/27 10:47:52;;;;;;;10.67;1.43;;;;;;;15.76;34.75;102363.00;5066356;28;20060;-68
2023/03/27 10:50:32;;;;;;;3.37;0.70;;;;;;;16.07;32.90;102370.69;5061144;28;20043;-69
2023/03/27 10:53:19;;;;;;;7.37;0.90;;;;;;;17.12;28.83;102366.94;5064341;28;20020;-69
2023/03/27 10:55:53;;;;;;;2.67;0.50;;;;;;;17.13;28.72;102371.34;5067692;28;20082;-69
2023/03/27 10:58:58;;;;;;;3.57;0.83;;;;;;;17.55;29.29;102372.53;5066076;28;20077;-69
2023/03/27 11:01:28;;;;;;;1.47;0.47;;;;;;;16.07;31.88;102370.69;5058414;28;20043;-69
2023/03/27 11:04:13;;;;;;;5.43;0.60;;;;;;;16.87;30.75;102376.03;5065086;28;20024;-69
2023/03/27 11:06:42;;;;;;;5.47;1.10;;;;;;;17.45;30.34;102377.94;5067612;28;20380;-69
2023/03/27 11:09:30;;;;;;;4.93;1.20;;;;;;;18.25;29.41;102374.97;5072974;28;20047;-70
2023/03/27 11:12:03;;;;;;;3.67;0.97;;;;;;;15.84;29.91;102388.44;5072486;28;20024;-67
2023/03/27 11:15:14;;;;;;;8.03;1.10;;;;;;;14.56;31.94;102395.09;5066539;28;20021;-70
2023/03/27 11:17:52;;;;;;;2.93;0.67;;;;;;;17.37;29.60;102392.19;5030194;28;20489;-69
2023/03/27 11:20:30;;;;;;;8.30;0.80;;;;;;;16.41;29.34;102393.25;5081936;28;20028;-70
2023/03/27 11:23:12;;;;;;;5.10;0.70;;;;;;;15.76;31.39;102402.53;5065627;28;20025;-69
2023/03/27 11:25:48;;;;;;;3.73;0.63;;;;;;;16.02;31.47;102404.16;5067434;28;20032;-70
2023/03/27 11:28:23;;;;;;;3.93;0.43;;;;;;;16.70;31.21;102392.06;5059642;28;20028;-70
2023/03/27 11:30:56;;;;;;;2.40;0.80;;;;;;;16.64;32.18;102400.94;5066131;28;20032;-70
2023/03/27 11:33:23;;;;;;;;;;;;;;;16.60;31.45;102412.41;5068180;28;20037;-70
2023/03/27 11:35:56;;;;;;;4.03;1.20;;;;;;;18.28;30.98;102406.66;5065086;28;19947;-71
2023/03/27 11:38:30;;;;;;;3.87;0.83;;;;;;;16.96;30.16;102400.59;5065505;28;20908;-70
2023/03/27 11:40:56;;;;;;;4.00;1.57;;;;;;;17.19;30.83;102417.09;5053732;28;20067;-70
2023/03/27 11:43:23;;;;;;;3.13;0.77;;;;;;;17.50;30.78;102421.94;5061438;28;21004;-70